createdAt,value
2023-05-07T00:00:56.767Z,100.00
2023-05-07T00:03:23.435Z,100.00
2023-05-07T00:05:50.097Z,100.00
2023-05-07T00:08:16.583Z,100.00
2023-05-07T00:10:43.348Z,100.00
2023-05-07T00:13:09.906Z,100.00
2023-05-07T00:15:36.694Z,100.00
2023-05-07T00:18:03.302Z,100.00
2023-05-07T00:20:29.973Z,100.00
2023-05-07T00:22:56.664Z,100.00
2023-05-07T00:25:23.471Z,100.00
2023-05-07T00:27:50.090Z,100.00
2023-05-07T00:30:17.144Z,100.00
2023-05-07T00:32:46.589Z,100.00
2023-05-07T00:35:13.700Z,100.00
2023-05-07T00:37:40.554Z,100.00
2023-05-07T00:40:09.061Z,100.00
2023-05-07T00:42:35.850Z,100.00
2023-05-07T00:45:02.408Z,100.00
2023-05-07T00:47:29.064Z,100.00
2023-05-07T00:49:55.855Z,100.00
2023-05-07T00:52:24.946Z,100.00
2023-05-07T00:54:51.536Z,100.00
2023-05-07T00:57:18.536Z,100.00
2023-05-07T00:59:45.392Z,100.00
2023-05-07T01:02:12.354Z,100.00
2023-05-07T01:04:38.970Z,100.00
2023-05-07T01:07:06.502Z,100.00
2023-05-07T01:09:33.205Z,100.00
2023-05-07T01:12:00.675Z,100.00
2023-05-07T01:14:27.878Z,100.00
2023-05-07T01:16:54.854Z,100.00
2023-05-07T01:19:21.636Z,100.00
2023-05-07T01:21:50.127Z,100.00
2023-05-07T01:24:17.216Z,100.00
2023-05-07T01:26:45.739Z,100.00
2023-05-07T01:29:12.644Z,100.00
2023-05-07T01:31:41.990Z,100.00
2023-05-07T01:34:09.749Z,100.00
2023-05-07T01:36:39.875Z,100.00
2023-05-07T01:39:07.534Z,100.00
2023-05-07T01:41:34.233Z,100.00
2023-05-07T01:44:02.519Z,100.00
2023-05-07T01:46:29.916Z,100.00
2023-05-07T01:48:56.744Z,100.00
2023-05-07T01:51:23.925Z,100.00
2023-05-07T01:53:51.956Z,100.00
2023-05-07T01:56:19.581Z,100.00
2023-05-07T01:58:47.526Z,100.00
2023-05-07T02:01:15.425Z,100.00
2023-05-07T02:03:42.209Z,100.00
2023-05-07T02:06:09.573Z,100.00
2023-05-07T02:08:36.517Z,100.00
2023-05-07T02:11:03.331Z,100.00
2023-05-07T02:13:31.862Z,100.00
2023-05-07T02:15:58.719Z,100.00
2023-05-07T02:18:25.577Z,100.00
2023-05-07T02:20:52.227Z,100.00
2023-05-07T02:23:18.897Z,100.00
2023-05-07T02:25:45.586Z,100.00
2023-05-07T02:28:12.172Z,100.00
2023-05-07T02:30:41.059Z,100.00
2023-05-07T02:33:09.467Z,100.00
2023-05-07T02:35:36.377Z,100.00
2023-05-07T02:38:03.401Z,100.00
2023-05-07T02:40:30.165Z,100.00
2023-05-07T02:42:56.741Z,100.00
2023-05-07T02:45:23.346Z,100.00
2023-05-07T02:47:50.004Z,100.00
2023-05-07T02:50:16.627Z,100.00
2023-05-07T02:52:43.240Z,100.00
2023-05-07T02:55:10.024Z,100.00
2023-05-07T02:57:36.633Z,100.00
2023-05-07T03:00:13.019Z,100.00
2023-05-07T03:02:39.730Z,100.00
2023-05-07T03:05:07.944Z,100.00
2023-05-07T03:07:35.508Z,100.00
2023-05-07T03:10:02.210Z,100.00
2023-05-07T03:12:28.853Z,100.00
2023-05-07T03:14:55.416Z,100.00
2023-05-07T03:17:22.905Z,100.00
2023-05-07T03:19:49.534Z,100.00
2023-05-07T03:22:16.196Z,100.00
2023-05-07T03:24:42.714Z,100.00
2023-05-07T03:27:09.449Z,100.00
2023-05-07T03:29:36.243Z,100.00
2023-05-07T03:32:02.912Z,100.00
2023-05-07T03:34:29.489Z,100.00
2023-05-07T03:36:56.271Z,100.00
2023-05-07T03:39:22.895Z,100.00
2023-05-07T03:41:49.586Z,100.00
2023-05-07T03:44:16.334Z,100.00
2023-05-07T03:46:43.077Z,100.00
2023-05-07T03:49:09.676Z,100.00
2023-05-07T03:51:37.197Z,100.00
2023-05-07T03:54:03.898Z,100.00
2023-05-07T03:56:30.774Z,100.00
2023-05-07T03:58:57.563Z,100.00
2023-05-07T04:01:24.243Z,100.00
2023-05-07T04:03:51.003Z,100.00
2023-05-07T04:06:20.622Z,100.00
2023-05-07T04:08:47.314Z,100.00
2023-05-07T04:11:13.970Z,100.00
2023-05-07T04:13:40.679Z,100.00
2023-05-07T04:16:07.702Z,100.00
2023-05-07T04:18:34.334Z,100.00
2023-05-07T04:21:01.101Z,100.00
2023-05-07T04:23:27.904Z,100.00
2023-05-07T04:25:55.512Z,100.00
2023-05-07T04:28:22.541Z,100.00
2023-05-07T04:30:49.136Z,100.00
2023-05-07T04:33:18.060Z,100.00
2023-05-07T04:35:44.776Z,100.00
2023-05-07T04:38:12.168Z,100.00
2023-05-07T04:40:40.032Z,100.00
2023-05-07T04:43:06.887Z,100.00
2023-05-07T04:45:33.686Z,100.00
2023-05-07T04:48:00.537Z,100.00
2023-05-07T04:50:27.820Z,100.00
2023-05-07T04:52:54.533Z,100.00
2023-05-07T04:55:21.258Z,100.00
2023-05-07T04:57:48.282Z,100.00
2023-05-07T05:00:20.624Z,100.00
2023-05-07T05:02:47.455Z,100.00
2023-05-07T05:05:14.170Z,100.00
2023-05-07T05:07:40.948Z,100.00
2023-05-07T05:10:07.808Z,100.00
2023-05-07T05:12:34.829Z,100.00
2023-05-07T05:15:01.464Z,100.00
2023-05-07T05:17:28.140Z,100.00
2023-05-07T05:19:54.862Z,100.00
2023-05-07T05:22:22.035Z,100.00
2023-05-07T05:24:48.833Z,100.00
2023-05-07T05:27:15.439Z,100.00
2023-05-07T05:29:42.000Z,100.00
2023-05-07T05:32:08.579Z,100.00
2023-05-07T05:34:35.261Z,100.00
2023-05-07T05:37:02.076Z,100.00
2023-05-07T05:39:28.865Z,100.00
2023-05-07T05:41:55.540Z,100.00
2023-05-07T05:44:22.162Z,100.00
2023-05-07T05:46:51.186Z,100.00
2023-05-07T05:49:17.998Z,100.00
2023-05-07T05:51:44.813Z,100.00
2023-05-07T05:54:11.476Z,100.00
2023-05-07T05:56:39.127Z,100.00
2023-05-07T05:59:06.026Z,100.00
2023-05-07T06:01:33.383Z,100.00
2023-05-07T06:04:00.066Z,100.00
2023-05-07T06:06:27.197Z,100.00
2023-05-07T06:08:53.973Z,100.00
2023-05-07T06:11:21.159Z,100.00
2023-05-07T06:13:47.852Z,100.00
2023-05-07T06:16:15.378Z,100.00
2023-05-07T06:18:42.023Z,100.00
2023-05-07T06:21:08.620Z,100.00
2023-05-07T06:23:35.302Z,100.00
2023-05-07T06:26:01.915Z,100.00
2023-05-07T06:28:28.813Z,100.00
2023-05-07T06:30:55.700Z,100.00
2023-05-07T06:33:22.369Z,100.00
2023-05-07T06:35:48.987Z,100.00
2023-05-07T06:38:16.086Z,100.00
2023-05-07T06:40:42.654Z,100.00
2023-05-07T06:43:09.151Z,100.00
2023-05-07T06:45:35.941Z,100.00
2023-05-07T06:48:02.529Z,100.00
2023-05-07T06:50:29.135Z,100.00
2023-05-07T06:52:55.772Z,100.00
2023-05-07T06:55:22.413Z,100.00
2023-05-07T06:57:49.004Z,100.00
2023-05-07T07:00:16.119Z,100.00
2023-05-07T07:02:42.758Z,100.00
2023-05-07T07:05:09.668Z,100.00
2023-05-07T07:07:36.496Z,100.00
2023-05-07T07:10:05.321Z,100.00
2023-05-07T07:12:35.148Z,100.00
2023-05-07T07:15:01.941Z,100.00
2023-05-07T07:17:28.628Z,100.00
2023-05-07T07:19:55.275Z,100.00
2023-05-07T07:22:21.836Z,100.00
2023-05-07T07:24:48.526Z,100.00
2023-05-07T07:27:15.139Z,100.00
2023-05-07T07:29:41.811Z,100.00
2023-05-07T07:32:09.656Z,100.00
2023-05-07T07:34:36.317Z,100.00
2023-05-07T07:37:06.438Z,100.00
2023-05-07T07:39:34.113Z,100.00
2023-05-07T07:42:01.146Z,100.00
2023-05-07T07:44:29.166Z,100.00
2023-05-07T07:46:56.582Z,100.00
2023-05-07T07:49:23.493Z,100.00
2023-05-07T07:51:50.109Z,100.00
2023-05-07T07:54:17.024Z,100.00
2023-05-07T07:56:43.740Z,100.00
2023-05-07T07:59:10.468Z,100.00
2023-05-07T08:01:37.167Z,100.00
2023-05-07T08:04:04.659Z,100.00
2023-05-07T08:06:31.299Z,100.00
2023-05-07T08:08:57.866Z,100.00
2023-05-07T08:11:30.142Z,100.00
2023-05-07T08:13:57.469Z,100.00
2023-05-07T08:16:24.528Z,100.00
2023-05-07T08:18:51.305Z,100.00
2023-05-07T08:21:18.246Z,100.00
2023-05-07T08:23:44.860Z,100.00
2023-05-07T08:26:16.705Z,100.00
2023-05-07T08:28:43.403Z,100.00
2023-05-07T08:31:10.113Z,100.00
2023-05-07T08:33:36.948Z,100.00
2023-05-07T08:36:03.851Z,100.00
2023-05-07T08:38:30.524Z,100.00
2023-05-07T08:40:57.448Z,100.00
2023-05-07T08:43:28.206Z,100.00
2023-05-07T08:45:56.678Z,100.00
2023-05-07T08:48:27.183Z,100.00
2023-05-07T08:50:53.931Z,100.00
2023-05-07T08:53:21.814Z,100.00
2023-05-07T08:55:49.554Z,100.00
2023-05-07T08:58:16.304Z,100.00
2023-05-07T09:00:43.670Z,100.00
2023-05-07T09:03:13.693Z,100.00
2023-05-07T09:05:40.899Z,100.00
2023-05-07T09:08:09.827Z,100.00
2023-05-07T09:10:36.412Z,100.00
2023-05-07T09:13:04.881Z,100.00
2023-05-07T09:15:31.543Z,100.00
2023-05-07T09:18:04.606Z,100.00
2023-05-07T09:20:31.846Z,100.00
2023-05-07T09:22:58.411Z,100.00
2023-05-07T09:25:33.335Z,100.00
2023-05-07T09:28:01.832Z,100.00
2023-05-07T09:30:30.661Z,100.00
2023-05-07T09:32:58.866Z,100.00
2023-05-07T09:35:28.407Z,100.00
2023-05-07T09:37:56.817Z,100.00
2023-05-07T09:40:23.598Z,100.00
2023-05-07T09:42:51.129Z,100.00
2023-05-07T09:45:26.052Z,100.00
2023-05-07T09:47:56.731Z,100.00
2023-05-07T09:50:33.696Z,100.00
2023-05-07T09:53:00.768Z,100.00
2023-05-07T09:55:28.165Z,100.00
2023-05-07T09:57:56.786Z,100.00
2023-05-07T10:00:24.117Z,100.00
2023-05-07T10:02:53.613Z,100.00
2023-05-07T10:05:21.589Z,100.00
2023-05-07T10:07:50.732Z,100.00
2023-05-07T10:10:18.963Z,100.00
2023-05-07T10:12:46.290Z,100.00
2023-05-07T10:15:13.732Z,100.00
2023-05-07T10:17:41.681Z,100.00
2023-05-07T10:20:09.501Z,100.00
2023-05-07T10:22:44.105Z,100.00
2023-05-07T10:25:24.465Z,100.00
2023-05-07T10:27:53.162Z,100.00
2023-05-07T10:30:28.134Z,100.00
2023-05-07T10:33:07.088Z,100.00
2023-05-07T10:35:40.180Z,100.00
2023-05-07T10:38:07.535Z,100.00
2023-05-07T10:40:34.619Z,100.00
2023-05-07T10:43:09.294Z,100.00
2023-05-07T10:45:36.774Z,100.00
2023-05-07T10:48:27.880Z,100.00
2023-05-07T10:51:23.224Z,100.00
2023-05-07T10:53:50.046Z,100.00
2023-05-07T10:56:22.538Z,100.00
2023-05-07T10:58:49.111Z,100.00
2023-05-07T11:01:18.109Z,100.00
2023-05-07T11:04:16.518Z,100.00
2023-05-07T11:06:43.086Z,100.00
2023-05-07T11:09:09.672Z,100.00
2023-05-07T11:11:52.497Z,100.00
2023-05-07T11:14:44.622Z,100.00
2023-05-07T11:17:12.344Z,100.00
2023-05-07T11:19:56.507Z,100.00
2023-05-07T11:22:41.820Z,100.00
2023-05-07T11:25:08.501Z,100.00
2023-05-07T11:27:35.834Z,100.00
2023-05-07T11:30:02.627Z,100.00
2023-05-07T11:32:31.250Z,99.96
2023-05-07T11:35:00.679Z,98.71
2023-05-07T11:37:30.901Z,99.84
2023-05-07T11:40:08.954Z,98.88
2023-05-07T11:42:38.691Z,99.04
2023-05-07T11:45:07.430Z,98.67
2023-05-07T11:47:34.976Z,97.73
2023-05-07T11:50:08.535Z,96.55
2023-05-07T11:52:36.159Z,97.91
2023-05-07T11:55:04.829Z,96.25
2023-05-07T11:57:31.846Z,94.43
2023-05-07T11:59:59.983Z,94.67
2023-05-07T12:02:27.344Z,96.00
2023-05-07T12:04:54.944Z,95.70
2023-05-07T12:07:22.457Z,95.91
2023-05-07T12:09:49.269Z,94.94
2023-05-07T12:12:16.812Z,93.60
2023-05-07T12:14:44.642Z,95.43
2023-05-07T12:17:12.826Z,94.62
2023-05-07T12:19:41.464Z,94.75
2023-05-07T12:22:12.021Z,94.70
2023-05-07T12:24:58.570Z,93.63
2023-05-07T12:27:25.662Z,94.13
2023-05-07T12:29:52.509Z,93.33
2023-05-07T12:32:20.983Z,93.02
2023-05-07T12:34:50.711Z,92.39
2023-05-07T12:37:18.039Z,94.02
2023-05-07T12:40:04.298Z,92.53
2023-05-07T12:42:36.222Z,91.67
2023-05-07T12:45:17.582Z,91.93
2023-05-07T12:47:48.921Z,91.82
2023-05-07T12:50:16.888Z,93.02
2023-05-07T12:52:48.963Z,92.68
2023-05-07T12:55:17.402Z,90.81
2023-05-07T12:57:52.502Z,89.86
2023-05-07T13:00:33.017Z,90.64
2023-05-07T13:02:59.847Z,90.38
2023-05-07T13:05:26.644Z,89.48
2023-05-07T13:07:57.477Z,90.08
2023-05-07T13:10:25.059Z,88.38
2023-05-07T13:12:52.297Z,87.93
2023-05-07T13:15:19.254Z,88.33
2023-05-07T13:17:46.039Z,88.31
2023-05-07T13:20:14.161Z,88.84
2023-05-07T13:22:41.382Z,88.49
2023-05-07T13:25:08.772Z,89.53
2023-05-07T13:27:38.018Z,88.99
2023-05-07T13:30:06.650Z,89.03
2023-05-07T13:32:33.755Z,87.47
2023-05-07T13:35:00.523Z,86.89
2023-05-07T13:37:27.354Z,86.30
2023-05-07T13:39:54.247Z,86.33
2023-05-07T13:42:20.934Z,86.62
2023-05-07T13:44:47.576Z,85.36
2023-05-07T13:47:14.489Z,84.10
2023-05-07T13:49:43.978Z,83.34
2023-05-07T13:52:10.600Z,84.88
2023-05-07T13:54:37.152Z,86.87
2023-05-07T13:57:04.101Z,87.22
2023-05-07T13:59:30.753Z,86.36
2023-05-07T14:01:57.653Z,86.06
2023-05-07T14:04:24.313Z,86.41
2023-05-07T14:06:50.929Z,87.11
2023-05-07T14:09:17.764Z,87.95
2023-05-07T14:11:44.497Z,87.44
2023-05-07T14:14:11.917Z,86.10
2023-05-07T14:16:39.035Z,85.31
2023-05-07T14:19:05.724Z,85.51
2023-05-07T14:21:32.679Z,84.68
2023-05-07T14:23:59.466Z,85.72
2023-05-07T14:26:28.219Z,85.90
2023-05-07T14:28:56.350Z,85.53
2023-05-07T14:31:23.316Z,85.76
2023-05-07T14:33:51.677Z,85.36
2023-05-07T14:36:21.057Z,85.88
2023-05-07T14:38:48.802Z,86.89
2023-05-07T14:41:16.090Z,85.62
2023-05-07T14:43:42.957Z,85.48
2023-05-07T14:46:09.911Z,86.61
2023-05-07T14:48:36.680Z,86.07
2023-05-07T14:51:03.556Z,85.57
2023-05-07T14:53:30.234Z,84.22
2023-05-07T14:55:56.985Z,84.59
2023-05-07T14:58:23.959Z,85.24
2023-05-07T15:00:50.811Z,84.76
2023-05-07T15:03:17.770Z,86.24
2023-05-07T15:05:44.631Z,85.64
2023-05-07T15:08:11.501Z,86.57
2023-05-07T15:10:42.418Z,84.51
2023-05-07T15:13:15.954Z,84.61
2023-05-07T15:15:44.650Z,84.93
2023-05-07T15:18:11.423Z,86.37
2023-05-07T15:20:38.432Z,85.48
2023-05-07T15:23:06.921Z,86.38
2023-05-07T15:25:35.124Z,86.87
2023-05-07T15:28:01.958Z,87.22
2023-05-07T15:30:28.779Z,85.80
2023-05-07T15:32:55.754Z,87.14
2023-05-07T15:35:23.277Z,87.33
2023-05-07T15:37:56.740Z,87.59
2023-05-07T15:40:23.430Z,86.45
2023-05-07T15:42:50.189Z,86.85
2023-05-07T15:45:16.923Z,87.24
2023-05-07T15:47:43.691Z,86.90
2023-05-07T15:50:16.697Z,86.56
2023-05-07T15:52:45.896Z,85.16
2023-05-07T15:55:12.884Z,85.74
2023-05-07T15:57:39.725Z,87.13
2023-05-07T16:00:09.594Z,87.85
2023-05-07T16:02:37.719Z,87.49
2023-05-07T16:05:04.884Z,86.64
2023-05-07T16:07:31.505Z,86.37
2023-05-07T16:09:58.021Z,85.68
2023-05-07T16:12:24.964Z,86.32
2023-05-07T16:14:52.019Z,86.36
2023-05-07T16:17:18.848Z,86.88
2023-05-07T16:19:45.531Z,88.37
2023-05-07T16:22:13.193Z,87.54
2023-05-07T16:24:41.102Z,88.50
2023-05-07T16:27:07.855Z,87.76
2023-05-07T16:29:34.533Z,87.73
2023-05-07T16:32:01.391Z,88.02
2023-05-07T16:34:29.015Z,86.81
2023-05-07T16:36:57.664Z,86.34
2023-05-07T16:39:24.379Z,87.08
2023-05-07T16:41:51.167Z,86.03
2023-05-07T16:44:18.364Z,85.90
2023-05-07T16:46:45.241Z,87.71
2023-05-07T16:49:12.592Z,87.94
2023-05-07T16:51:43.567Z,87.38
2023-05-07T16:54:10.261Z,87.21
2023-05-07T16:56:37.098Z,88.90
2023-05-07T16:59:03.866Z,88.46
2023-05-07T17:01:34.121Z,88.61
2023-05-07T17:04:01.101Z,88.13
2023-05-07T17:06:27.822Z,87.61
2023-05-07T17:08:54.381Z,88.31
2023-05-07T17:11:21.651Z,88.65
2023-05-07T17:13:48.323Z,87.12
2023-05-07T17:16:15.213Z,87.64
2023-05-07T17:18:41.917Z,88.90
2023-05-07T17:21:08.583Z,89.05
2023-05-07T17:23:35.194Z,89.73
2023-05-07T17:26:01.858Z,90.11
2023-05-07T17:28:28.563Z,90.25
2023-05-07T17:30:55.415Z,90.53
2023-05-07T17:33:22.411Z,92.22
2023-05-07T17:35:49.917Z,91.77
2023-05-07T17:38:16.632Z,92.31
2023-05-07T17:40:43.204Z,92.38
2023-05-07T17:43:09.798Z,91.82
2023-05-07T17:45:36.645Z,92.83
2023-05-07T17:48:03.728Z,92.91
2023-05-07T17:50:30.566Z,92.95
2023-05-07T17:52:57.259Z,93.25
2023-05-07T17:55:24.441Z,92.76
2023-05-07T17:57:51.291Z,93.59
2023-05-07T18:00:19.132Z,93.70
2023-05-07T18:02:46.046Z,94.76
2023-05-07T18:05:12.852Z,94.77
2023-05-07T18:07:39.436Z,95.13
2023-05-07T18:10:06.738Z,95.61
2023-05-07T18:12:33.340Z,96.04
2023-05-07T18:15:00.158Z,96.80
2023-05-07T18:17:27.895Z,97.05
2023-05-07T18:19:55.424Z,97.18
2023-05-07T18:22:22.380Z,97.76
2023-05-07T18:24:49.995Z,98.86
2023-05-07T18:27:16.726Z,100.00
2023-05-07T18:29:43.343Z,99.57
2023-05-07T18:32:10.243Z,99.46
2023-05-07T18:34:36.908Z,99.50
2023-05-07T18:37:03.530Z,100.00
2023-05-07T18:39:31.331Z,100.00
2023-05-07T18:41:58.824Z,100.00
2023-05-07T18:44:25.635Z,100.00
2023-05-07T18:46:52.257Z,100.00
2023-05-07T18:49:19.341Z,100.00
2023-05-07T18:51:45.958Z,100.00
2023-05-07T18:54:12.662Z,100.00
2023-05-07T18:56:39.225Z,100.00
2023-05-07T18:59:05.891Z,100.00
2023-05-07T19:01:32.823Z,100.00
2023-05-07T19:03:59.573Z,100.00
2023-05-07T19:06:26.474Z,100.00
2023-05-07T19:08:53.067Z,100.00
2023-05-07T19:11:20.122Z,100.00
2023-05-07T19:13:46.661Z,100.00
2023-05-07T19:16:14.121Z,100.00
2023-05-07T19:18:41.579Z,100.00
2023-05-07T19:21:08.319Z,100.00
2023-05-07T19:23:41.724Z,100.00
2023-05-07T19:26:10.172Z,100.00
2023-05-07T19:28:45.370Z,100.00
2023-05-07T19:31:22.639Z,100.00
2023-05-07T19:33:49.659Z,100.00
2023-05-07T19:36:17.540Z,100.00
2023-05-07T19:38:45.312Z,100.00
2023-05-07T19:41:12.560Z,100.00
2023-05-07T19:43:40.052Z,100.00
2023-05-07T19:46:06.925Z,100.00
2023-05-07T19:48:33.659Z,100.00
2023-05-07T19:51:00.214Z,100.00
2023-05-07T19:53:27.185Z,100.00
2023-05-07T19:56:03.464Z,100.00
2023-05-07T19:58:30.349Z,100.00
2023-05-07T20:00:57.073Z,100.00
2023-05-07T20:03:23.762Z,100.00
2023-05-07T20:05:50.747Z,100.00
2023-05-07T20:08:17.333Z,100.00
2023-05-07T20:10:43.878Z,100.00
2023-05-07T20:13:11.224Z,100.00
2023-05-07T20:15:38.650Z,100.00
2023-05-07T20:18:05.649Z,100.00
2023-05-07T20:20:32.810Z,100.00
2023-05-07T20:22:59.396Z,100.00
2023-05-07T20:25:26.279Z,100.00
2023-05-07T20:27:53.109Z,100.00
2023-05-07T20:30:20.629Z,100.00
2023-05-07T20:32:47.221Z,100.00
2023-05-07T20:35:13.869Z,100.00
2023-05-07T20:37:40.606Z,100.00
2023-05-07T20:40:08.293Z,100.00
2023-05-07T20:42:35.392Z,100.00
2023-05-07T20:45:03.734Z,100.00
2023-05-07T20:47:33.735Z,100.00
2023-05-07T20:50:00.477Z,100.00
2023-05-07T20:52:27.289Z,100.00
2023-05-07T20:54:53.933Z,100.00
2023-05-07T20:57:20.657Z,100.00
2023-05-07T20:59:49.483Z,100.00
2023-05-07T21:02:16.306Z,100.00
2023-05-07T21:04:43.022Z,100.00
2023-05-07T21:07:09.805Z,100.00
2023-05-07T21:09:36.443Z,100.00
2023-05-07T21:12:03.234Z,100.00
2023-05-07T21:14:29.817Z,100.00
2023-05-07T21:16:56.804Z,100.00
2023-05-07T21:19:23.423Z,100.00
2023-05-07T21:21:49.959Z,100.00
2023-05-07T21:24:16.561Z,100.00
2023-05-07T21:26:43.199Z,100.00
2023-05-07T21:29:09.798Z,100.00
2023-05-07T21:31:36.420Z,100.00
2023-05-07T21:34:04.147Z,100.00
2023-05-07T21:36:31.641Z,100.00
2023-05-07T21:38:58.224Z,100.00
2023-05-07T21:41:24.815Z,100.00
2023-05-07T21:43:53.112Z,100.00
2023-05-07T21:46:19.776Z,100.00
2023-05-07T21:48:46.310Z,100.00
2023-05-07T21:51:13.437Z,100.00
2023-05-07T21:53:40.111Z,100.00
2023-05-07T21:56:06.960Z,100.00
2023-05-07T21:58:33.563Z,100.00
2023-05-07T22:01:01.496Z,100.00
2023-05-07T22:03:28.245Z,100.00
2023-05-07T22:05:54.785Z,100.00
2023-05-07T22:08:21.279Z,100.00
2023-05-07T22:10:47.992Z,100.00
2023-05-07T22:13:14.655Z,100.00
2023-05-07T22:15:53.168Z,100.00
2023-05-07T22:18:23.648Z,100.00
2023-05-07T22:20:53.043Z,100.00
2023-05-07T22:23:19.774Z,100.00
2023-05-07T22:25:46.510Z,100.00
2023-05-07T22:28:13.285Z,100.00
2023-05-07T22:30:40.350Z,100.00
2023-05-07T22:33:07.068Z,100.00
2023-05-07T22:35:33.847Z,100.00
2023-05-07T22:38:00.705Z,100.00
2023-05-07T22:40:27.464Z,100.00
2023-05-07T22:42:53.972Z,100.00
2023-05-07T22:45:21.195Z,100.00
2023-05-07T22:47:48.510Z,100.00
2023-05-07T22:50:15.904Z,100.00
2023-05-07T22:52:42.669Z,100.00
2023-05-07T22:55:09.498Z,100.00
2023-05-07T22:57:36.089Z,100.00
2023-05-07T23:00:02.769Z,100.00
2023-05-07T23:02:29.551Z,100.00
2023-05-07T23:05:00.600Z,100.00
2023-05-07T23:07:27.948Z,100.00
2023-05-07T23:09:54.605Z,100.00
2023-05-07T23:12:21.091Z,100.00
2023-05-07T23:14:47.662Z,100.00
2023-05-07T23:17:14.344Z,100.00
2023-05-07T23:19:41.048Z,100.00
2023-05-07T23:22:07.706Z,100.00
2023-05-07T23:24:34.974Z,100.00
2023-05-07T23:27:05.658Z,100.00
2023-05-07T23:29:32.836Z,100.00
2023-05-07T23:31:59.590Z,100.00
2023-05-07T23:34:26.244Z,100.00
2023-05-07T23:36:53.002Z,100.00
2023-05-07T23:39:20.058Z,100.00
2023-05-07T23:41:46.892Z,100.00
2023-05-07T23:44:13.645Z,100.00
2023-05-07T23:46:40.249Z,100.00
2023-05-07T23:49:06.845Z,100.00
2023-05-07T23:51:33.461Z,100.00
2023-05-07T23:54:00.760Z,100.00
2023-05-07T23:56:27.316Z,100.00
2023-05-07T23:58:53.928Z,100.00
